Time;durP1;ratioP1;P1;durP2;ratioP2;P2;SDS_P1;SDS_P2;PMS_P1;PMS_P2;Temp;Humidity;BMP_temperature;BMP_pressure;BME280_temperature;BME280_humidity;BME280_pressure;Samples;Min_cycle;Max_cycle;Signal;HPM_P1;HPM_P2
2021/01/27 00:00:43;;;;;;;;;;;;;;;7.25;53.50;101127.25;5066534;27;101076;-80
2021/01/27 00:03:09;;;;;;;;;;;;;;;7.25;53.60;101140.41;5056978;27;97859;-79
2021/01/27 00:05:36;;;;;;;;;;;;;;;7.00;53.84;101137.28;5055496;27;96855;-80
2021/01/27 00:08:03;;;;;;;;;;;;;;;6.99;54.31;101129.41;5060706;27;97069;-80
2021/01/27 00:10:29;;;;;;;;;;;;;;;7.10;53.83;101140.63;5062227;27;99320;-81
2021/01/27 00:12:56;;;;;;;;;;;;;;;6.97;54.13;101141.69;5055262;27;98995;-81
2021/01/27 00:15:22;;;;;;;;;;;;;;;7.05;54.04;101137.19;5048009;27;97365;-82
2021/01/27 00:17:49;;;;;;;;;;;;;;;6.34;55.85;101149.53;5052770;27;97322;-82
2021/01/27 00:20:16;;;;;;;;;;;;;;;6.94;54.73;101144.38;5054134;27;98391;-82
2021/01/27 00:22:43;;;;;;;;;;;;;;;6.78;54.74;101148.97;5053004;27;99257;-82
2021/01/27 00:25:09;;;;;;;;;;;;;;;6.77;55.34;101145.47;5053178;27;97438;-82
2021/01/27 00:27:35;;;;;;;;;;;;;;;6.99;54.42;101146.06;5043728;27;97862;-80
2021/01/27 00:30:01;;;;;;;;;;;;;;;6.99;54.73;101151.31;5047695;27;97835;-80
2021/01/27 00:32:28;;;;;;;;;;;;;;;6.69;55.63;101143.84;5053358;27;98956;-81
2021/01/27 00:34:55;;;;;;;;;;;;;;;7.05;54.58;101142.47;5050653;27;96920;-80
2021/01/27 00:37:21;;;;;;;;;;;;;;;7.06;54.16;101139.81;5049748;27;96749;-81
2021/01/27 00:39:46;;;;;;;;;;;;;;;7.25;53.89;101136.91;5034167;28;99392;-80
2021/01/27 00:42:12;;;;;;;;;;;;;;;7.00;54.24;101139.03;5019636;27;98885;-80
2021/01/27 00:44:38;;;;;;;;;;;;;;;7.13;54.16;101140.59;5029813;27;98780;-81
2021/01/27 00:47:04;;;;;;;;;;;;;;;6.95;54.75;101141.75;5036784;27;96996;-81
2021/01/27 00:49:30;;;;;;;;;;;;;;;6.40;55.75;101136.34;5016496;27;99302;-81
2021/01/27 00:51:56;;;;;;;;;;;;;;;6.95;54.40;101146.13;5013896;27;98856;-81
2021/01/27 00:54:22;;;;;;;;;;;;;;;6.99;54.25;101132.03;5014541;27;96823;-81
2021/01/27 00:56:48;;;;;;;;;;;;;;;7.27;53.31;101136.00;5032417;27;98534;-81
2021/01/27 00:59:14;;;;;;;;;;;;;;;7.02;54.00;101140.72;5018273;27;98861;-80
2021/01/27 01:01:40;;;;;;;;;;;;;;;7.22;53.50;101134.34;5022114;27;98906;-80
2021/01/27 01:04:06;;;;;;;;;;;;;;;7.21;53.50;101141.34;5028976;27;96792;-81
2021/01/27 01:06:32;;;;;;;;;;;;;;;6.85;54.64;101140.13;5040989;27;97239;-80
2021/01/27 01:08:59;;;;;;;;;;;;;;;7.05;54.23;101142.47;5053047;27;98135;-80
2021/01/27 01:11:25;;;;;;;;;;;;;;;7.25;53.57;101140.41;5040829;27;99061;-80
2021/01/27 01:13:50;;;;;;;;;;;;;;;7.14;53.70;101143.22;5029819;27;96855;-80
2021/01/27 01:16:16;;;;;;;;;;;;;;;7.09;53.82;101149.41;5033017;27;97754;-80
2021/01/27 01:18:42;;;;;;;;;;;;;;;7.09;53.67;101146.75;5031696;27;98051;-80
2021/01/27 01:21:08;;;;;;;;;;;;;;;7.09;53.75;101138.88;5028999;27;97898;-80
2021/01/27 01:23:34;;;;;;;;;;;;;;;7.12;53.84;101138.84;5019141;27;96847;-81
2021/01/27 01:26:00;;;;;;;;;;;;;;;7.16;53.52;101146.66;5013468;27;96993;-81
2021/01/27 01:28:26;;;;;;;;;;;;;;;7.20;53.58;101137.84;5022450;27;97821;-80
2021/01/27 01:30:52;;;;;;;;;;;;;;;7.15;53.67;101137.03;5013655;27;98153;-80
2021/01/27 01:33:19;;;;;;;;;;;;;;;7.24;53.19;101135.16;5019673;27;96942;-81
2021/01/27 01:35:45;;;;;;;;;;;;;;;7.24;53.03;101136.03;5026615;27;97056;-80
2021/01/27 01:38:12;;;;;;;;;;;;;;;7.37;52.88;101131.44;5032704;28;99051;-80
2021/01/27 01:40:39;;;;;;;;;;;;;;;7.02;53.59;101132.84;5035937;27;98872;-80
2021/01/27 01:43:08;;;;;;;;;;;;;;;6.98;53.90;101120.66;5059974;27;96912;-79
2021/01/27 01:45:35;;;;;;;;;;;;;;;7.10;53.24;101124.84;5052916;27;98759;-80
2021/01/27 01:48:04;;;;;;;;;;;;;;;6.99;53.46;101122.41;5048870;27;97589;-80
2021/01/27 01:50:30;;;;;;;;;;;;;;;7.07;53.34;101122.28;5046248;27;99202;-80
2021/01/27 01:52:56;;;;;;;;;;;;;;;7.13;53.62;101124.81;5045962;27;98385;-80
2021/01/27 01:55:23;;;;;;;;;;;;;;;6.89;53.71;101127.81;5042347;27;96843;-81
2021/01/27 01:57:50;;;;;;;;;;;;;;;7.05;53.74;101126.69;5032442;27;99229;-80
2021/01/27 02:00:18;;;;;;;;;;;;;;;6.94;53.59;101123.38;5032774;28;97941;-80
2021/01/27 02:02:43;;;;;;;;;;;;;;;7.07;53.46;101117.91;5047532;27;96916;-80
2021/01/27 02:05:11;;;;;;;;;;;;;;;6.88;53.64;101113.81;5051896;27;96905;-80
2021/01/27 02:07:38;;;;;;;;;;;;;;;6.61;54.36;101117.69;5031957;27;99127;-81
2021/01/27 02:10:04;;;;;;;;;;;;;;;6.77;54.07;101124.47;5041288;27;98326;-80
2021/01/27 02:12:49;;;;;;;;;;;;;;;6.73;54.45;101120.16;5051073;27;96862;-79
2021/01/27 02:15:30;;;;;;;;;;;;;;;6.49;55.00;101119.63;5050352;27;98740;-80
2021/01/27 02:18:00;;;;;;;;;;;;;;;6.54;54.35;101115.16;5051778;27;99294;-81
2021/01/27 02:20:43;;;;;;;;;;;;;;;6.76;53.98;101122.72;5050717;27;99125;-80
2021/01/27 02:23:23;;;;;;;;;;;;;;;6.45;54.83;101117.91;5038342;27;96839;-80
2021/01/27 02:25:54;;;;;;;;;;;;;;;6.46;54.99;101120.50;5054116;27;97356;-80
2021/01/27 02:28:44;;;;;;;;;;;;;;;6.40;54.72;101123.22;5045201;27;98736;-80
2021/01/27 02:31:19;;;;;;;;;;;;;;;6.65;54.28;101121.13;5035541;27;102032;-81
2021/01/27 02:34:04;;;;;;;;;;;;;;;6.65;54.10;101121.13;5040890;27;97256;-79
2021/01/27 02:36:33;;;;;;;;;;;;;;;6.52;54.46;101124.81;5038861;27;96808;-81
2021/01/27 02:39:01;;;;;;;;;;;;;;;6.60;53.87;101117.72;5032152;27;98279;-80
2021/01/27 02:41:30;;;;;;;;;;;;;;;6.49;54.40;101120.50;5036537;27;101365;-80
2021/01/27 02:43:59;;;;;;;;;;;;;;;6.21;54.73;101121.69;5053470;27;96814;-81
2021/01/27 02:46:28;;;;;;;;;;;;;;;6.43;54.39;101125.81;5056387;27;97337;-80
2021/01/27 02:48:58;;;;;;;;;;;;;;;6.37;54.75;101126.75;5041994;27;98925;-78
2021/01/27 02:51:27;;;;;;;;;;;;;;;6.22;55.22;101128.69;5038712;28;99324;-79
2021/01/27 02:53:56;;;;;;;;;;;;;;;6.22;54.86;101121.69;5050697;27;96728;-78
2021/01/27 02:56:25;;;;;;;;;;;;;;;6.06;55.57;101128.00;5049861;27;97816;-79
2021/01/27 02:58:56;;;;;;;;;;;;;;;5.79;56.19;101126.47;5052300;27;99796;-80
2021/01/27 03:01:26;;;;;;;;;;;;;;;5.94;55.55;101121.13;5059980;27;101953;-79
2021/01/27 03:03:55;;;;;;;;;;;;;;;6.12;55.03;101116.56;5063951;27;96793;-80
2021/01/27 03:06:21;;;;;;;;;;;;;;;6.17;55.00;101122.63;5059980;27;97090;-79
2021/01/27 03:08:51;;;;;;;;;;;;;;;6.29;54.85;101118.13;5062195;27;99708;-79
2021/01/27 03:11:21;;;;;;;;;;;;;;;5.81;55.76;101118.59;5057706;27;99127;-79
2021/01/27 03:13:47;;;;;;;;;;;;;;;5.66;56.37;101119.63;5050900;27;96984;-80
2021/01/27 03:16:15;;;;;;;;;;;;;;;5.82;56.37;101120.34;5056105;27;96858;-80
2021/01/27 03:18:44;;;;;;;;;;;;;;;5.46;56.79;101109.31;5047645;27;100169;-80
2021/01/27 03:21:12;;;;;;;;;;;;;;;5.63;56.98;101114.44;5054093;27;98903;-79
2021/01/27 03:23:43;;;;;;;;;;;;;;;5.81;55.91;101113.38;5045272;27;96722;-80
2021/01/27 03:26:14;;;;;;;;;;;;;;;6.00;55.35;101107.06;5037124;27;96813;-80
2021/01/27 03:28:44;;;;;;;;;;;;;;;5.93;55.18;101115.88;5053967;27;99340;-80
2021/01/27 03:31:11;;;;;;;;;;;;;;;6.18;54.56;101112.09;5052760;27;101222;-79
2021/01/27 03:33:41;;;;;;;;;;;;;;;5.97;54.93;101113.19;5042437;27;96934;-81
2021/01/27 03:36:10;;;;;;;;;;;;;;;5.95;55.45;101116.75;5045809;27;97042;-80
2021/01/27 03:38:37;;;;;;;;;;;;;;;5.78;55.86;101124.75;5035160;28;100065;-80
2021/01/27 03:41:06;;;;;;;;;;;;;;;6.08;55.12;101122.72;5045514;27;98248;-79
2021/01/27 03:43:35;;;;;;;;;;;;;;;5.81;56.12;101124.72;5054911;27;97295;-80
2021/01/27 03:46:07;;;;;;;;;;;;;;;5.51;56.33;101114.53;5048942;27;97375;-80
2021/01/27 03:48:36;;;;;;;;;;;;;;;5.88;55.51;101120.31;5045545;27;101305;-79
2021/01/27 03:51:02;;;;;;;;;;;;;;;5.62;56.56;101117.94;5047453;27;98834;-80
2021/01/27 03:53:30;;;;;;;;;;;;;;;5.85;55.88;101120.31;5034687;28;96692;-80
2021/01/27 03:55:59;;;;;;;;;;;;;;;5.88;55.77;101115.94;5034763;27;96884;-80
2021/01/27 03:58:30;;;;;;;;;;;;;;;6.14;54.94;101114.78;5047220;27;100532;-79
2021/01/27 04:00:59;;;;;;;;;;;;;;;6.02;55.49;101118.44;5035087;27;98266;-79
2021/01/27 04:03:26;;;;;;;;;;;;;;;5.87;56.10;101115.91;5053776;27;99200;-80
2021/01/27 04:05:52;;;;;;;;;;;;;;;5.99;55.63;101124.56;5049066;27;96901;-80
2021/01/27 04:08:18;;;;;;;;;;;;;;;6.04;55.71;101115.78;5054850;27;101815;-80
2021/01/27 04:10:44;;;;;;;;;;;;;;;5.97;55.61;101122.84;5047643;27;99014;-80
2021/01/27 04:13:09;;;;;;;;;;;;;;;6.03;55.97;101121.91;5055277;27;96629;-81
2021/01/27 04:15:35;;;;;;;;;;;;;;;6.08;55.71;101112.22;5053963;27;96932;-81
2021/01/27 04:18:01;;;;;;;;;;;;;;;5.43;57.20;101116.34;5053268;27;98145;-81
2021/01/27 04:20:28;;;;;;;;;;;;;;;6.02;55.92;101123.66;5053532;27;98816;-81
2021/01/27 04:22:54;;;;;;;;;;;;;;;6.29;55.16;101115.50;5049707;27;96888;-82
2021/01/27 04:25:20;;;;;;;;;;;;;;;6.34;54.83;101113.66;5044878;27;97550;-82
2021/01/27 04:27:46;;;;;;;;;;;;;;;6.12;55.42;101125.28;5051417;27;98224;-81
2021/01/27 04:30:14;;;;;;;;;;;;;;;5.95;56.56;101132.50;5048000;27;98835;-81
2021/01/27 04:32:40;;;;;;;;;;;;;;;6.04;55.53;101127.13;5046646;27;97659;-81
2021/01/27 04:35:06;;;;;;;;;;;;;;;6.14;55.56;101120.91;5052770;27;97850;-81
2021/01/27 04:37:33;;;;;;;;;;;;;;;6.06;55.98;101119.25;5052298;27;100265;-82
2021/01/27 04:39:59;;;;;;;;;;;;;;;6.23;55.52;101123.44;5052377;27;97763;-81
2021/01/27 04:42:26;;;;;;;;;;;;;;;6.05;56.30;101120.13;5050419;27;97000;-81
2021/01/27 04:44:53;;;;;;;;;;;;;;;6.51;54.61;101117.81;5050187;27;96990;-81
2021/01/27 04:47:22;;;;;;;;;;;;;;;6.42;54.85;101108.31;5048297;27;98113;-81
2021/01/27 04:49:51;;;;;;;;;;;;;;;6.50;54.90;101109.06;5034370;27;102257;-81
2021/01/27 04:52:24;;;;;;;;;;;;;;;6.65;54.66;101105.38;5048349;27;96911;-81
2021/01/27 04:55:01;;;;;;;;;;;;;;;6.41;55.35;101103.97;5051098;27;98435;-80
2021/01/27 04:57:34;;;;;;;;;;;;;;;6.38;55.32;101101.34;5046991;27;99615;-81
2021/01/27 05:00:07;;;;;;;;;;;;;;;6.10;56.49;101107.84;5044131;27;99236;-81
2021/01/27 05:02:44;;;;;;;;;;;;;;;6.28;55.87;101110.25;5047107;27;97260;-81
2021/01/27 05:05:11;;;;;;;;;;;;;;;6.42;55.83;101105.69;5045134;27;96867;-81
2021/01/27 05:07:48;;;;;;;;;;;;;;;6.64;54.87;101106.25;5049228;27;98068;-82
2021/01/27 05:10:17;;;;;;;;;;;;;;;6.22;55.93;101105.94;5051195;27;101641;-81
2021/01/27 05:12:46;;;;;;;;;;;;;;;6.34;56.28;101100.53;5048765;27;96987;-81
2021/01/27 05:15:13;;;;;;;;;;;;;;;6.56;55.87;101109.03;5052140;27;96882;-82
2021/01/27 05:17:41;;;;;;;;;;;;;;;6.37;56.02;101099.63;5052083;27;101899;-81
2021/01/27 05:20:08;;;;;;;;;;;;;;;6.24;56.42;101103.28;5050205;27;98890;-81
2021/01/27 05:22:34;;;;;;;;;;;;;;;6.50;56.31;101098.56;5032686;27;98363;-81
2021/01/27 05:25:00;;;;;;;;;;;;;;;6.66;55.39;101101.88;5049352;27;96892;-82
2021/01/27 05:27:29;;;;;;;;;;;;;;;6.32;57.27;101098.81;5034507;27;99567;-82
2021/01/27 05:29:58;;;;;;;;;;;;;;;6.46;56.31;101089.00;5033914;27;101265;-79
2021/01/27 05:32:25;;;;;;;;;;;;;;;6.53;56.50;101095.91;5043744;27;97708;-79
2021/01/27 05:34:52;;;;;;;;;;;;;;;6.49;56.04;101088.13;5051507;27;97062;-80
2021/01/27 05:37:19;;;;;;;;;;;;;;;6.45;56.68;101092.50;5049519;27;102337;-80
2021/01/27 05:39:46;;;;;;;;;;;;;;;6.77;55.67;101085.06;5066812;27;99376;-82
2021/01/27 05:42:23;;;;;;;;;;;;;;;6.75;55.76;101086.00;5006354;27;1314930;-82
2021/01/27 05:44:52;;;;;;;;;;;;;;;6.95;55.54;101088.31;5055753;27;96603;-81
2021/01/27 05:47:24;;;;;;;;;;;;;;;6.93;55.01;101084.84;5047815;28;99846;-81
2021/01/27 05:49:50;;;;;;;;;;;;;;;6.50;56.41;101080.19;5053637;27;100467;-80
2021/01/27 05:52:17;;;;;;;;;;;;;;;6.57;56.92;101088.84;5049711;28;96836;-81
2021/01/27 05:54:43;;;;;;;;;;;;;;;6.66;56.53;101094.00;5044433;28;96854;-81
2021/01/27 05:57:13;;;;;;;;;;;;;;;6.75;55.85;101079.00;5038730;28;98178;-80
2021/01/27 05:59:39;;;;;;;;;;;;;;;6.94;55.55;101087.47;5049322;27;99272;-81
2021/01/27 06:02:06;;;;;;;;;;;;;;;6.89;55.85;101080.53;5031864;27;98898;-79
2021/01/27 06:04:33;;;;;;;;;;;;;;;6.74;56.01;101086.88;5032511;28;97063;-80
2021/01/27 06:07:00;;;;;;;;;;;;;;;6.93;55.68;101082.22;5023982;28;98984;-80
2021/01/27 06:09:34;;;;;;;;;;;;;;;6.50;57.03;101085.44;5019244;28;98927;-80
2021/01/27 06:12:00;;;;;;;;;;;;;;;6.55;56.90;101085.41;5027701;28;97129;-81
2021/01/27 06:14:27;;;;;;;;;;;;;;;6.78;55.85;101092.06;5038453;27;98430;-80
2021/01/27 06:16:53;;;;;;;;;;;;;;;7.02;55.13;101082.09;5023475;27;97927;-79
2021/01/27 06:19:21;;;;;;;;;;;;;;;6.82;55.67;101077.13;5017253;27;100867;-80
2021/01/27 06:21:56;;;;;;;;;;;;;;;6.76;55.84;101085.94;5031759;28;96767;-79
2021/01/27 06:24:40;;;;;;;;;;;;;;;6.69;56.06;101081.69;5024799;28;99044;-81
2021/01/27 06:27:31;;;;;;;;;;;;;;;6.96;55.54;101085.66;5020217;28;98527;-80
2021/01/27 06:30:03;;;;;;;;;;;;;;;6.92;55.37;101078.72;5032680;27;97848;-79
2021/01/27 06:32:36;;;;;;;;;;;;;;;6.99;55.21;101068.97;5028006;27;97186;-80
2021/01/27 06:35:07;;;;;;;;;;;;;;;7.01;55.21;101073.34;5025894;27;96863;-80
2021/01/27 06:37:47;;;;;;;;;;;;;;;6.85;55.49;101066.56;5028648;28;98884;-80
2021/01/27 06:40:29;;;;;;;;;;;;;;;6.86;55.82;101076.19;5019100;28;99280;-80
2021/01/27 06:43:11;;;;;;;;;;;;;;;6.44;56.68;101072.41;5021965;27;97024;-79
2021/01/27 06:45:41;;;;;;;;;;;;;;;6.92;56.16;101067.34;5030296;28;96939;-80
2021/01/27 06:48:30;;;;;;;;;;;;;;;6.74;55.87;101069.38;5032236;28;97778;-80
2021/01/27 06:51:14;;;;;;;;;;;;;;;6.91;55.86;101066.47;5011101;28;98168;-80
2021/01/27 06:53:57;;;;;;;;;;;;;;;6.95;56.04;101080.44;5029256;28;97039;-80
2021/01/27 06:56:34;;;;;;;;;;;;;;;7.09;55.53;101079.31;5008332;28;96903;-80
2021/01/27 06:59:07;;;;;;;;;;;;;;;6.94;55.78;101082.19;5024194;28;97857;-80
2021/01/27 07:02:02;;;;;;;;;;;;;;;7.27;54.61;101075.53;5022628;28;99109;-80
2021/01/27 07:04:42;;;;;;;;;;;;;;;7.17;54.97;101073.94;5026779;28;97171;-79
2021/01/27 07:07:15;;;;;;;;;;;;;;;7.29;54.80;101079.00;5028769;28;97475;-80
2021/01/27 07:10:02;;;;;;;;;;;;;;;7.11;55.26;101079.28;5028074;27;98242;-79
2021/01/27 07:12:31;;;;;;;;;;;;;;;7.30;54.81;101082.50;5014505;28;98949;-80
2021/01/27 07:15:14;;;;;;;;;;;;;;;7.36;54.66;101085.00;5029239;28;96990;-79
2021/01/27 07:17:52;;;;;;;;;;;;;;;7.14;55.21;101082.75;5029555;28;97105;-80
2021/01/27 07:20:21;;;;;;;;;;;;;;;7.40;54.61;101076.19;5025416;28;99194;-80
2021/01/27 07:22:50;;;;;;;;;;;;;;;7.38;54.50;101084.09;5027751;28;97741;-80
2021/01/27 07:25:18;;;;;;;;;;;;;;;7.09;55.20;101087.19;5010211;28;97070;-79
2021/01/27 07:27:47;;;;;;;;;;;;;;;7.06;55.19;101089.03;5027764;28;97247;-80
2021/01/27 07:30:16;;;;;;;;;;;;;;;7.28;54.36;101079.91;5032502;28;99039;-81
2021/01/27 07:32:47;;;;;;;;;;;;;;;7.20;54.79;101084.41;5024253;28;99260;-80
2021/01/27 07:35:15;;;;;;;;;;;;;;;7.58;53.67;101081.13;5031541;27;97380;-80
2021/01/27 07:37:43;;;;;;;;;;;;;;;7.53;53.90;101081.22;5045211;27;96881;-80
2021/01/27 07:40:11;;;;;;;;;;;;;;;7.69;53.13;101079.16;5027682;28;100509;-80
2021/01/27 07:42:41;;;;;;;;;;;;;;;7.51;53.69;101088.25;5013331;28;98907;-81
2021/01/27 07:45:12;;;;;;;;;;;;;;;7.43;53.87;101081.38;5013545;28;96801;-80
2021/01/27 07:47:46;;;;;;;;;;;;;;;7.78;53.39;101075.50;5016405;28;98464;-80
2021/01/27 07:50:12;;;;;;;;;;;;;;;7.43;53.87;101078.75;5032380;27;99364;-81
2021/01/27 07:52:42;;;;;;;;;;;;;;;7.28;54.62;101079.91;5039168;27;100847;-81
2021/01/27 07:55:12;;;;;;;;;;;;;;;7.25;54.74;101076.44;5032769;28;96965;-80
2021/01/27 07:57:50;;;;;;;;;;;;;;;7.53;53.91;101070.69;5025420;28;96895;-81
2021/01/27 08:00:19;;;;;;;;;;;;;;;7.42;54.06;101074.38;5030669;28;99352;-80
2021/01/27 08:03:03;;;;;;;;;;;;;;;7.52;53.66;101076.84;5018976;28;99316;-81
2021/01/27 08:05:35;;;;;;;;;;;;;;;7.64;53.41;101067.00;5037917;27;96739;-81
2021/01/27 08:08:03;;;;;;;;;;;;;;;7.63;53.46;101067.88;5039631;27;97158;-81
2021/01/27 08:10:31;;;;;;;;;;;;;;;7.68;53.52;101069.53;5032335;28;98956;-80
2021/01/27 08:12:59;;;;;;;;;;;;;;;7.93;52.69;101067.31;5029356;27;99611;-81
2021/01/27 08:15:58;;;;;;;;;;;;;;;7.58;53.29;101066.22;5026533;28;96791;-81
2021/01/27 08:18:26;;;;;;;;;;;;;;;7.59;53.79;101067.09;5026820;27;96745;-82
2021/01/27 08:21:07;;;;;;;;;;;;;;;7.48;53.75;101069.06;5041340;27;99410;-82
2021/01/27 08:23:46;;;;;;;;;;;;;;;7.47;53.82;101068.19;5038256;28;98872;-81
2021/01/27 08:26:32;;;;;;;;;;;;;;;7.15;54.62;101066.06;5038684;28;97350;-82
2021/01/27 08:29:05;;;;;;;;;;;;;;;7.33;54.57;101067.53;5052714;27;96886;-82
2021/01/27 08:31:31;;;;;;;;;;;;;;;7.70;53.31;101058.97;5046968;28;98166;-82
2021/01/27 08:33:58;;;;;;;;;;;;;;;7.82;52.76;101061.38;5035031;28;99994;-82
2021/01/27 08:36:38;;;;;;;;;;;;;;;7.88;52.69;101062.13;5050381;28;96929;-83
2021/01/27 08:39:07;;;;;;;;;;;;;;;7.75;52.97;101065.88;5027284;28;96687;-83
2021/01/27 08:41:38;;;;;;;;;;;;;;;7.59;53.46;101057.44;5058220;27;97786;-83
2021/01/27 08:44:04;;;;;;;;;;;;;;;7.79;53.10;101058.81;5074048;27;97188;-84
2021/01/27 08:46:41;;;;;;;;;;;;;;;7.83;53.09;101060.50;5052800;27;96994;-83
2021/01/27 08:49:07;;;;;;;;;;;;;;;7.89;52.64;101055.97;5052735;27;97981;-84
2021/01/27 08:51:40;;;;;;;;;;;;;;;7.79;53.13;101059.69;5051637;27;101840;-81
2021/01/27 08:54:21;;;;;;;;;;;;;;;7.79;53.06;101050.94;5062488;27;101552;-83
2021/01/27 08:57:06;;;;;;;;;;;;;;;7.91;52.84;101048.06;5060882;27;96813;-82
2021/01/27 08:59:32;;;;;;;;;;;;;;;7.83;52.82;101044.69;5054813;27;96960;-83
2021/01/27 09:02:00;;;;;;;;;;;;;;;7.65;53.41;101050.31;5046404;27;99875;-83
2021/01/27 09:04:35;;;;;;;;;;;;;;;7.81;53.13;101046.53;5050606;27;98093;-83
2021/01/27 09:07:03;;;;;;;;;;;;;;;7.90;52.66;101044.56;5052683;27;97185;-83
2021/01/27 09:09:31;;;;;;;;;;;;;;;7.95;52.78;101037.44;5062007;27;97247;-81
2021/01/27 09:12:01;;;;;;;;;;;;;;;8.01;52.81;101045.19;5049569;27;99170;-82
2021/01/27 09:14:27;;;;;;;;;;;;;;;8.40;51.61;101038.25;5049201;27;100163;-83
2021/01/27 09:16:54;;;;;;;;;;;;;;;8.19;51.80;101035.22;5057025;27;97176;-83
2021/01/27 09:19:23;;;;;;;;;;;;;;;8.28;51.61;101042.91;5060445;27;96840;-82
2021/01/27 09:21:58;;;;;;;;;;;;;;;8.54;50.83;101032.69;5059337;27;101347;-82
2021/01/27 09:24:26;;;;;;;;;;;;;;;8.52;51.28;101031.88;5054155;27;99629;-82
2021/01/27 09:26:53;;;;;;;;;;;;;;;8.42;51.40;101037.38;5053609;27;96968;-82
2021/01/27 09:29:20;;;;;;;;;;;;;;;8.39;51.56;101033.91;5057721;27;97049;-82
2021/01/27 09:31:46;;;;;;;;;;;;;;;8.64;50.81;101036.88;5043361;27;98327;-81
2021/01/27 09:34:16;;;;;;;;;;;;;;;8.49;51.08;101034.56;5035791;27;97857;-82
2021/01/27 09:36:43;;;;;;;;;;;;;;;8.50;50.77;101031.03;5053507;27;97022;-82
2021/01/27 09:39:10;;;;;;;;;;;;;;;8.40;50.72;101040.91;5046043;27;96904;-81
2021/01/27 09:41:40;;;;;;;;;;;;;;;8.52;50.85;101037.16;5044371;27;101397;-82
2021/01/27 09:44:14;;;;;;;;;;;;;;;8.63;50.20;101032.50;5037089;27;100258;-81
2021/01/27 09:46:40;;;;;;;;;;;;;;;8.52;50.35;101036.28;5032835;27;96848;-81
2021/01/27 09:49:08;;;;;;;;;;;;;;;8.57;49.89;101034.41;5028137;27;96899;-82
2021/01/27 09:51:35;;;;;;;;;;;;;;;8.62;49.45;101032.53;5025627;27;100020;-83
2021/01/27 09:54:03;;;;;;;;;;;;;;;9.01;49.43;101028.06;5029249;27;101159;-83
2021/01/27 09:56:29;;;;;;;;;;;;;;;8.97;48.98;101024.66;5032045;27;97326;-83
2021/01/27 09:58:57;;;;;;;;;;;;;;;9.35;48.42;101028.09;5033253;27;96925;-81
2021/01/27 10:01:24;;;;;;;;;;;;;;;9.63;47.40;101033.50;5029271;27;98207;-81
2021/01/27 10:03:50;;;;;;;;;;;;;;;9.71;47.19;101027.13;5036024;28;98022;-82
2021/01/27 10:06:30;;;;;;;;;;;;;;;8.80;47.98;101027.69;5035623;27;96904;-80
2021/01/27 10:08:57;;;;;;;;;;;;;;;9.47;47.72;101018.09;5031911;27;96915;-80
2021/01/27 10:11:27;;;;;;;;;;;;;;;9.79;46.83;101017.19;5027857;28;98247;-81
2021/01/27 10:13:57;;;;;;;;;;;;;;;9.92;46.19;101015.94;5026248;28;100066;-81
2021/01/27 10:16:24;;;;;;;;;;;;;;;10.18;45.62;101017.00;5026668;27;97912;-80
2021/01/27 10:18:59;;;;;;;;;;;;;;;9.59;46.71;101019.53;5025310;27;96856;-80
2021/01/27 10:21:25;;;;;;;;;;;;;;;9.29;47.51;101015.06;5031613;28;99466;-81
2021/01/27 10:23:51;;;;;;;;;;;;;;;9.58;47.00;101017.81;5033550;27;101752;-81
2021/01/27 10:26:35;;;;;;;;;;;;;;;9.58;46.56;101002.81;5032678;28;96776;-82
2021/01/27 10:29:27;;;;;;;;;;;;;;;9.30;46.67;101011.53;5032245;28;96969;-82
2021/01/27 10:31:54;;;;;;;;;;;;;;;9.26;46.89;101000.19;5018907;27;99875;-82
2021/01/27 10:34:39;;;;;;;;;;;;;;;8.83;48.21;101000.41;5036365;27;99252;-82
2021/01/27 10:37:06;;;;;;;;;;;;;;;9.22;47.64;100998.53;5041566;27;96996;-82
2021/01/27 10:39:32;;;;;;;;;;;;;;;9.70;45.92;101000.78;5034628;27;97374;-82
2021/01/27 10:42:16;;;;;;;;;;;;;;;9.79;45.64;100997.84;5040821;27;101292;-81
2021/01/27 10:44:44;;;;;;;;;;;;;;;9.91;45.55;101000.19;5026390;28;99688;-84
2021/01/27 10:47:19;;;;;;;;;;;;;;;10.06;44.94;100983.00;5043075;27;97347;-82
2021/01/27 10:49:46;;;;;;;;;;;;;;;10.13;45.38;100989.84;5046631;27;96894;-81
2021/01/27 10:52:17;;;;;;;;;;;;;;;10.27;44.91;100985.03;5048746;27;101198;-83
2021/01/27 10:54:43;;;;;;;;;;;;;;;10.19;45.15;100989.69;5047446;27;100229;-82
2021/01/27 10:57:09;;;;;;;;;;;;;;;10.54;43.96;100984.19;5046447;27;97006;-82
2021/01/27 10:59:35;;;;;;;;;;;;;;;10.41;44.33;100980.19;5043119;27;96855;-83
2021/01/27 11:02:02;;;;;;;;;;;;;;;10.15;44.49;100988.03;5045679;28;98745;-82
2021/01/27 11:04:28;;;;;;;;;;;;;;;9.86;45.53;100984.44;5053082;27;98824;-82
2021/01/27 11:06:54;;;;;;;;;;;;;;;10.14;44.52;100981.00;5056350;27;96792;-83
2021/01/27 11:09:20;;;;;;;;;;;;;;;10.20;44.66;100975.56;5049277;27;96976;-82
2021/01/27 11:11:46;;;;;;;;;;;;;;;10.24;44.25;100974.59;5050148;27;100849;-83
2021/01/27 11:14:12;;;;;;;;;;;;;;;10.05;44.00;100973.34;5047723;27;99557;-82
2021/01/27 11:16:37;;;;;;;;;;;;;;;10.03;44.91;100973.41;5048804;27;97127;-82
2021/01/27 11:19:04;;;;;;;;;;;;;;;10.12;43.83;100978.41;5049708;27;97334;-82
2021/01/27 11:21:30;;;;;;;;;;;;;;;9.82;44.44;100980.19;5047568;27;98428;-82
2021/01/27 11:23:56;;;;;;;;;;;;;;;9.53;45.41;100977.47;5042578;27;100419;-82
2021/01/27 11:26:22;;;;;;;;;;;;;;;9.42;45.00;100985.69;5035614;27;96872;-83
2021/01/27 11:28:51;;;;;;;;;;;;;;;9.71;44.37;100977.00;5041287;27;96986;-82
2021/01/27 11:31:17;;;;;;;;;;;;;;;9.63;44.88;100978.97;5059674;27;100773;-83
2021/01/27 11:33:44;;;;;;;;;;;;;;;9.61;44.11;100975.50;5065838;27;98164;-83
2021/01/27 11:36:11;;;;;;;;;;;;;;;9.68;43.96;100971.78;5062172;27;97048;-84
2021/01/27 11:38:37;;;;;;;;;;;;;;;9.99;43.65;100955.91;5055378;27;96896;-84
2021/01/27 11:41:03;;;;;;;;;;;;;;;9.95;43.96;100965.72;5035979;27;99686;-84
2021/01/27 11:43:30;;;;;;;;;;;;;;;9.89;43.98;100957.13;5023052;28;98517;-82
2021/01/27 11:45:56;;;;;;;;;;;;;;;10.04;43.49;100958.44;5042796;27;98849;-81
2021/01/27 11:48:22;;;;;;;;;;;;;;;10.18;43.37;100961.53;5037820;28;97776;-81
2021/01/27 11:50:48;;;;;;;;;;;;;;;10.28;43.41;100950.66;5034051;28;99528;-80
2021/01/27 11:53:14;;;;;;;;;;;;;;;10.09;43.50;100948.59;5030938;27;98974;-81
2021/01/27 11:55:40;;;;;;;;;;;;;;;9.85;44.17;100948.41;5030823;28;98504;-83
2021/01/27 11:58:06;;;;;;;;;;;;;;;10.06;43.69;100943.41;5032560;27;96877;-81
2021/01/27 12:00:32;;;;;;;;;;;;;;;10.07;43.34;100937.22;5033092;27;98239;-81
2021/01/27 12:02:58;;;;;;;;;;;;;;;9.79;43.99;100937.16;5033067;28;99546;-82
2021/01/27 12:05:24;;;;;;;;;;;;;;;9.86;43.84;100939.56;5028552;28;96915;-82
2021/01/27 12:07:49;;;;;;;;;;;;;;;10.23;43.24;100938.53;5034175;27;98017;-80
2021/01/27 12:10:16;;;;;;;;;;;;;;;10.29;43.14;100927.75;5027045;28;101020;-81
2021/01/27 12:12:42;;;;;;;;;;;;;;;10.28;42.83;100926.03;5031826;27;101297;-81
2021/01/27 12:15:09;;;;;;;;;;;;;;;10.29;42.21;100922.47;5031124;28;97873;-81
2021/01/27 12:17:35;;;;;;;;;;;;;;;10.22;42.38;100921.81;5036686;28;96777;-83
2021/01/27 12:20:01;;;;;;;;;;;;;;;10.58;41.48;100925.03;5022676;27;98858;-83
2021/01/27 12:22:27;;;;;;;;;;;;;;;10.76;41.12;100908.56;5035499;28;102461;-83
2021/01/27 12:24:53;;;;;;;;;;;;;;;10.49;41.46;100912.16;5025730;28;96946;-81
2021/01/27 12:27:21;;;;;;;;;;;;;;;10.58;41.11;100909.19;5033305;28;97509;-83
2021/01/27 12:29:46;;;;;;;;;;;;;;;10.53;41.20;100904.97;5029028;28;98697;-82
2021/01/27 12:32:12;;;;;;;;;;;;;;;10.62;40.95;100894.97;5038589;27;99170;-82
2021/01/27 12:34:39;;;;;;;;;;;;;;;10.52;41.25;100897.94;5030661;28;96873;-84
2021/01/27 12:37:05;;;;;;;;;;;;;;;10.06;41.66;100903.78;5034024;28;97969;-83
2021/01/27 12:39:31;;;;;;;;;;;;;;;9.83;41.48;100896.59;5033742;27;99275;-86
2021/01/27 12:41:58;;;;;;;;;;;;;;;10.12;41.71;100896.56;5035690;27;100684;-84
2021/01/27 12:44:25;;;;;;;;;;;;;;;10.53;40.40;100894.41;5035408;27;97753;-82
2021/01/27 12:46:53;;;;;;;;;;;;;;;10.64;40.29;100886.97;5030722;27;96989;-84
2021/01/27 12:49:19;;;;;;;;;;;;;;;10.75;40.42;100883.06;5039577;27;101661;-85
2021/01/27 12:51:45;;;;;;;;;;;;;;;10.77;39.33;100891.78;5046399;27;101001;-85
2021/01/27 12:54:11;;;;;;;;;;;;;;;10.60;39.69;100883.56;5054578;27;96848;-84